createdAt,value
2022-12-18T00:01:49.596Z,3.30
2022-12-18T00:06:53.203Z,8.10
2022-12-18T00:11:56.107Z,7.90
2022-12-18T00:17:01.881Z,8.50
2022-12-18T00:22:04.883Z,7.50
2022-12-18T00:27:07.892Z,7.20
2022-12-18T00:32:10.805Z,6.90
2022-12-18T00:37:19.741Z,4.90
2022-12-18T00:42:41.795Z,9.80
2022-12-18T00:47:44.653Z,6.80
2022-12-18T00:52:47.808Z,6.60
2022-12-18T00:57:53.383Z,6.30
2022-12-18T01:02:56.403Z,6.90
2022-12-18T01:08:00.407Z,9.60
2022-12-18T01:13:03.314Z,10.70
2022-12-18T01:18:06.727Z,4.20
2022-12-18T01:23:09.839Z,4.40
2022-12-18T01:28:12.740Z,6.80
2022-12-18T01:33:15.748Z,3.70
2022-12-18T01:38:18.959Z,8.40
2022-12-18T01:43:21.867Z,8.60
2022-12-18T01:54:07.650Z,4.00
2022-12-18T01:59:12.597Z,3.80
2022-12-18T02:04:27.485Z,5.60
2022-12-18T02:10:00.900Z,6.90
2022-12-18T02:15:13.983Z,5.60
2022-12-18T02:20:37.021Z,3.10
2022-12-18T02:26:18.151Z,7.90
2022-12-18T02:31:27.253Z,8.30
2022-12-18T02:36:33.552Z,6.10
2022-12-18T02:41:37.719Z,4.00
2022-12-18T02:46:44.858Z,1.60
2022-12-18T02:52:08.683Z,5.40
2022-12-18T02:57:39.032Z,8.10
2022-12-18T03:02:48.201Z,5.20
2022-12-18T03:08:00.611Z,2.30
2022-12-18T03:13:07.614Z,5.50
2022-12-18T03:18:38.878Z,5.60
2022-12-18T03:23:47.210Z,6.40
2022-12-18T03:28:54.721Z,6.20
2022-12-18T03:34:02.337Z,6.60
2022-12-18T03:39:05.549Z,6.30
2022-12-18T03:44:36.101Z,7.50
2022-12-18T03:49:58.257Z,6.00
2022-12-18T03:55:04.132Z,8.40
2022-12-18T04:00:11.806Z,6.50
2022-12-18T04:05:16.902Z,7.80
2022-12-18T04:10:20.214Z,8.40
2022-12-18T04:15:23.132Z,9.90
2022-12-18T04:20:26.021Z,6.50
2022-12-18T04:25:28.925Z,6.70
2022-12-18T04:30:31.932Z,5.20
2022-12-18T04:35:34.838Z,9.80
2022-12-18T04:40:38.933Z,7.80
2022-12-18T04:45:42.197Z,6.20
2022-12-18T04:50:45.205Z,8.10
2022-12-18T04:55:48.198Z,10.80
2022-12-18T05:00:51.101Z,11.80
2022-12-18T05:05:54.281Z,12.40
2022-12-18T05:11:06.737Z,8.60
2022-12-18T05:16:10.076Z,10.30
2022-12-18T05:21:12.959Z,11.30
2022-12-18T05:26:18.521Z,10.30
2022-12-18T05:31:21.489Z,9.60
2022-12-18T05:36:24.842Z,10.80
2022-12-18T05:41:29.202Z,14.80
2022-12-18T05:46:32.164Z,9.40
2022-12-18T05:51:35.122Z,7.60
2022-12-18T05:56:37.948Z,13.30
2022-12-18T06:01:40.881Z,17.20
2022-12-18T06:06:44.005Z,10.80
2022-12-18T06:11:46.907Z,8.50
2022-12-18T06:16:52.664Z,6.40
2022-12-18T06:21:55.684Z,12.20
2022-12-18T06:26:58.589Z,17.40
2022-12-18T06:32:01.553Z,19.00
2022-12-18T06:37:05.011Z,11.90
2022-12-18T06:42:08.427Z,11.60
2022-12-18T06:47:11.740Z,12.20
2022-12-18T06:52:17.619Z,16.70
2022-12-18T06:57:20.519Z,12.70
2022-12-18T07:02:23.509Z,5.70
2022-12-18T07:07:26.538Z,10.60
2022-12-18T07:12:29.437Z,16.50
2022-12-18T07:17:32.448Z,10.10
2022-12-18T07:22:35.345Z,8.70
2022-12-18T07:27:38.186Z,10.40
2022-12-18T07:32:41.158Z,15.50
2022-12-18T07:37:43.977Z,11.50
2022-12-18T07:42:47.004Z,11.90
2022-12-18T07:47:49.867Z,9.20
2022-12-18T07:52:52.770Z,12.10
2022-12-18T07:58:00.857Z,12.60
2022-12-18T08:03:04.342Z,8.60
2022-12-18T08:08:07.629Z,15.10
2022-12-18T08:13:10.429Z,11.20
2022-12-18T08:18:14.579Z,14.30
2022-12-18T08:23:17.568Z,11.50
2022-12-18T08:28:20.452Z,12.60
2022-12-18T08:33:23.477Z,14.40
2022-12-18T08:38:26.382Z,15.20
2022-12-18T08:43:48.947Z,17.20
2022-12-18T08:48:53.428Z,14.90
2022-12-18T08:53:56.336Z,17.70
2022-12-18T08:58:59.399Z,16.00
2022-12-18T09:04:03.228Z,17.50
2022-12-18T09:09:07.258Z,13.00
2022-12-18T09:14:10.876Z,14.50
2022-12-18T09:19:13.885Z,12.20
2022-12-18T09:24:17.922Z,18.10
2022-12-18T09:29:20.926Z,19.50
2022-12-18T09:34:24.034Z,14.10
2022-12-18T09:39:26.943Z,16.40
2022-12-18T09:44:47.818Z,15.30
2022-12-18T09:49:56.194Z,19.20
2022-12-18T09:55:14.556Z,21.30
2022-12-18T10:00:24.119Z,20.20
2022-12-18T10:05:33.069Z,15.80
2022-12-18T10:10:53.478Z,30.70
2022-12-18T10:16:21.218Z,30.30
2022-12-18T10:21:38.915Z,34.60
2022-12-18T10:26:43.111Z,28.80
2022-12-18T10:31:45.951Z,25.90
2022-12-18T10:36:49.060Z,24.20
2022-12-18T10:41:52.988Z,23.70
2022-12-18T10:47:08.756Z,27.40
2022-12-18T10:52:23.168Z,26.10
2022-12-18T10:57:41.638Z,25.80
2022-12-18T11:02:44.783Z,25.60
2022-12-18T11:07:51.234Z,23.40
2022-12-18T11:12:54.242Z,24.70
2022-12-18T11:17:57.556Z,25.20
2022-12-18T11:23:14.490Z,24.80
2022-12-18T11:33:29.725Z,23.70
2022-12-18T11:38:40.386Z,27.30
2022-12-18T11:43:52.247Z,24.40
2022-12-18T11:49:07.820Z,28.90
2022-12-18T11:54:15.845Z,28.60
2022-12-18T11:59:26.938Z,28.30
2022-12-18T12:04:45.613Z,29.20
2022-12-18T12:09:51.708Z,31.90
2022-12-18T12:15:25.420Z,31.60
2022-12-18T12:20:49.363Z,31.20
2022-12-18T12:26:07.276Z,31.80
2022-12-18T12:36:45.545Z,31.80
2022-12-18T12:42:08.004Z,31.50
2022-12-18T12:47:33.520Z,30.90
2022-12-18T12:52:53.165Z,30.40
2022-12-18T12:58:16.220Z,29.10
2022-12-18T13:03:48.595Z,32.50
2022-12-18T13:08:57.784Z,31.50
2022-12-18T13:14:00.664Z,31.20
2022-12-18T13:19:04.080Z,29.90
2022-12-18T13:24:23.163Z,24.80
2022-12-18T13:29:46.806Z,33.60
2022-12-18T13:35:10.569Z,32.90
2022-12-18T13:40:47.902Z,26.10
2022-12-18T13:46:08.517Z,23.20
2022-12-18T13:51:20.121Z,32.40
2022-12-18T13:56:26.243Z,26.50
2022-12-18T14:01:31.090Z,17.30
2022-12-18T14:06:34.035Z,20.60
2022-12-18T14:11:38.466Z,19.20
2022-12-18T14:16:43.940Z,17.20
2022-12-18T14:21:50.710Z,13.30
2022-12-18T14:26:53.626Z,13.10
2022-12-18T14:32:25.677Z,12.20
2022-12-18T14:37:28.562Z,8.00
2022-12-18T14:42:31.605Z,12.50
2022-12-18T14:47:34.483Z,13.50
2022-12-18T14:52:37.347Z,14.80
2022-12-18T14:57:43.345Z,15.20
2022-12-18T15:02:54.371Z,15.70
2022-12-18T15:08:00.483Z,17.80
2022-12-18T15:13:04.429Z,15.30
2022-12-18T15:18:13.092Z,13.20
2022-12-18T15:23:18.917Z,16.90
2022-12-18T15:28:40.494Z,11.80
2022-12-18T15:33:47.223Z,10.20
2022-12-18T15:39:02.133Z,8.30
2022-12-18T15:44:25.773Z,10.50
2022-12-18T15:49:28.602Z,18.30
2022-12-18T15:54:49.873Z,9.80
2022-12-18T15:59:55.189Z,18.60
2022-12-18T16:04:58.277Z,17.80
2022-12-18T16:10:02.421Z,22.90
2022-12-18T16:15:07.177Z,14.60
2022-12-18T16:20:21.874Z,19.60
2022-12-18T16:25:27.511Z,17.30
2022-12-18T16:30:37.908Z,8.50
2022-12-18T16:35:41.532Z,18.30
2022-12-18T16:41:03.621Z,12.80
2022-12-18T16:46:06.469Z,16.30
2022-12-18T16:51:09.347Z,12.10
2022-12-18T16:56:12.162Z,14.00
2022-12-18T17:01:15.189Z,15.00
2022-12-18T17:06:18.056Z,13.20
2022-12-18T17:11:21.822Z,13.90
2022-12-18T17:16:25.768Z,14.80
2022-12-18T17:21:29.042Z,14.30
2022-12-18T17:26:31.975Z,13.90
2022-12-18T17:31:35.031Z,12.00
2022-12-18T17:36:37.891Z,14.20
2022-12-18T17:41:40.766Z,9.80
2022-12-18T17:46:44.253Z,10.50
2022-12-18T17:51:47.484Z,12.40
2022-12-18T17:56:50.435Z,13.90
2022-12-18T18:01:53.406Z,11.60
2022-12-18T18:06:56.706Z,14.70
2022-12-18T18:12:17.845Z,10.40
2022-12-18T18:17:20.887Z,19.60
2022-12-18T18:22:24.027Z,14.40
2022-12-18T18:27:27.447Z,14.00
2022-12-18T18:32:30.447Z,14.40
2022-12-18T18:37:34.276Z,16.40
2022-12-18T18:42:37.088Z,18.30
2022-12-18T18:47:40.033Z,13.60
2022-12-18T18:52:42.908Z,17.30
2022-12-18T18:57:47.381Z,11.30
2022-12-18T19:02:50.454Z,10.10
2022-12-18T19:07:53.515Z,21.50
2022-12-18T19:13:14.710Z,22.40
2022-12-18T19:18:17.870Z,23.30
2022-12-18T19:23:20.967Z,31.20
2022-12-18T19:28:26.387Z,35.70
2022-12-18T19:33:48.178Z,31.60
2022-12-18T19:38:52.540Z,32.30
2022-12-18T19:43:55.573Z,25.60
2022-12-18T19:49:00.087Z,22.80
2022-12-18T19:54:03.836Z,18.70
2022-12-18T19:59:06.823Z,15.50
2022-12-18T20:04:09.791Z,18.20
2022-12-18T20:09:12.878Z,17.70
2022-12-18T20:14:19.604Z,18.20
2022-12-18T20:19:27.248Z,15.50
2022-12-18T20:24:30.144Z,17.10
2022-12-18T20:29:33.350Z,15.20
2022-12-18T20:34:36.696Z,14.50
2022-12-18T20:39:40.375Z,8.80
2022-12-18T20:44:43.741Z,16.10
2022-12-18T20:49:46.597Z,18.70
2022-12-18T20:54:49.476Z,16.60
2022-12-18T20:59:52.433Z,22.60
2022-12-18T21:04:55.229Z,23.50
2022-12-18T21:09:58.109Z,21.40
2022-12-18T21:15:01.944Z,23.90
2022-12-18T21:20:05.227Z,25.70
2022-12-18T21:25:09.920Z,19.00
2022-12-18T21:30:14.650Z,17.70
2022-12-18T21:35:17.852Z,16.40
2022-12-18T21:40:22.851Z,17.40
2022-12-18T21:45:26.127Z,17.40
2022-12-18T21:50:28.971Z,17.10
2022-12-18T21:55:31.936Z,13.10
2022-12-18T22:00:34.755Z,16.60
2022-12-18T22:05:37.629Z,21.80
2022-12-18T22:10:40.667Z,21.20
2022-12-18T22:15:44.093Z,22.60
2022-12-18T22:20:47.845Z,19.70
2022-12-18T22:25:50.664Z,14.30
2022-12-18T22:30:59.012Z,17.10
2022-12-18T22:36:06.941Z,23.80
2022-12-18T22:41:09.785Z,19.60
2022-12-18T22:46:17.853Z,15.90
2022-12-18T22:51:21.109Z,12.40
2022-12-18T22:56:24.111Z,15.70
2022-12-18T23:01:29.841Z,15.80
2022-12-18T23:06:32.731Z,18.00
2022-12-18T23:11:35.588Z,17.30
2022-12-18T23:16:38.470Z,15.40
2022-12-18T23:21:41.738Z,10.30
2022-12-18T23:26:44.633Z,11.80
2022-12-18T23:31:47.523Z,15.80
2022-12-18T23:36:54.614Z,15.10
2022-12-18T23:41:59.306Z,13.80
2022-12-18T23:47:03.601Z,10.30
2022-12-18T23:52:06.822Z,15.60
2022-12-18T23:57:09.665Z,14.50
